Time;durP1;ratioP1;P1;durP2;ratioP2;P2;SDS_P1;SDS_P2;PMS_P1;PMS_P2;Temp;Humidity;BMP_temperature;BMP_pressure;BME280_temperature;BME280_humidity;BME280_pressure;Samples;Min_cycle;Max_cycle;Signal;HPM_P1;HPM_P2
2024/02/26 00:01:26;;;;;;;3.55;1.63;;;;;;;4.99;98.51;99528.22;4994764;28;20046;-71
2024/02/26 00:03:52;;;;;;;3.85;1.40;;;;;;;4.97;98.36;99528.41;4994258;28;20037;-71
2024/02/26 00:06:18;;;;;;;5.45;1.65;;;;;;;4.96;99.19;99525.97;5009499;28;20034;-71
2024/02/26 00:08:44;;;;;;;4.93;1.27;;;;;;;4.95;99.20;99525.16;5009737;28;20115;-71
2024/02/26 00:11:09;;;;;;;3.80;1.67;;;;;;;4.94;99.76;99517.63;5009937;28;20038;-71
2024/02/26 00:13:36;;;;;;;3.95;1.50;;;;;;;4.93;100.00;99521.13;5008935;28;20034;-71
2024/02/26 00:16:02;;;;;;;3.28;1.80;;;;;;;4.92;100.00;99519.53;5007279;28;20050;-71
2024/02/26 00:18:27;;;;;;;3.05;2.20;;;;;;;4.92;100.00;99517.75;5009821;28;20037;-71
2024/02/26 00:20:53;;;;;;;8.35;2.10;;;;;;;4.93;100.00;99514.22;5007850;28;20783;-71
2024/02/26 00:23:18;;;;;;;2.75;1.80;;;;;;;4.96;100.00;99497.72;5009137;28;20543;-71
2024/02/26 00:25:43;;;;;;;4.25;1.67;;;;;;;5.02;100.00;99512.53;5008180;28;20092;-71
2024/02/26 00:28:10;;;;;;;6.63;2.65;;;;;;;4.97;100.00;99510.41;5010107;28;20493;-71
2024/02/26 00:30:36;;;;;;;5.85;2.05;;;;;;;4.97;100.00;99514.72;5020045;28;20034;-71
2024/02/26 00:33:01;;;;;;;3.38;1.55;;;;;;;4.94;100.00;99505.56;5004342;28;20032;-71
2024/02/26 00:35:27;;;;;;;4.13;1.73;;;;;;;4.92;100.00;99507.50;5007531;28;20032;-71
2024/02/26 00:37:52;;;;;;;2.00;1.20;;;;;;;4.95;100.00;99514.88;5007363;28;20037;-71
2024/02/26 00:40:18;;;;;;;2.83;1.60;;;;;;;4.90;100.00;99508.56;4976750;28;20037;-71
2024/02/26 00:42:45;;;;;;;4.07;1.45;;;;;;;4.94;100.00;99510.72;5009359;28;20056;-71
2024/02/26 00:45:15;;;;;;;4.10;1.50;;;;;;;4.96;100.00;99506.22;5009646;28;20038;-71
2024/02/26 00:47:41;;;;;;;4.93;1.65;;;;;;;4.89;100.00;99510.34;5004178;28;20050;-71
2024/02/26 00:50:08;;;;;;;3.40;1.73;;;;;;;4.87;100.00;99507.91;5005263;28;20527;-71
2024/02/26 00:52:34;;;;;;;3.42;1.60;;;;;;;4.90;100.00;99500.88;4974145;28;20400;-71
2024/02/26 00:54:59;;;;;;;4.50;2.13;;;;;;;4.84;100.00;99510.81;5007929;28;20030;-71
2024/02/26 00:57:25;;;;;;;9.60;4.00;;;;;;;4.82;100.00;99506.75;4993119;28;20034;-71
2024/02/26 00:59:50;;;;;;;8.23;4.15;;;;;;;4.81;100.00;99502.59;5007291;28;20030;-71
2024/02/26 01:02:16;;;;;;;6.80;2.35;;;;;;;4.80;100.00;99511.25;5005536;28;20404;-72
2024/02/26 01:04:41;;;;;;;4.78;1.92;;;;;;;4.78;100.00;99506.25;4993202;28;20480;-72
2024/02/26 01:07:07;;;;;;;3.45;1.42;;;;;;;4.76;100.00;99515.06;5012203;28;20373;-72
2024/02/26 01:09:32;;;;;;;3.47;1.90;;;;;;;4.74;100.00;99507.50;4977494;28;20034;-73
2024/02/26 01:11:58;;;;;;;4.25;1.65;;;;;;;4.82;100.00;99504.19;4992332;28;20056;-72
2024/02/26 01:14:23;;;;;;;4.03;1.95;;;;;;;4.77;100.00;99501.28;4991248;28;20049;-72
2024/02/26 01:16:49;;;;;;;6.20;2.00;;;;;;;4.78;100.00;99500.31;4984452;28;20038;-73
2024/02/26 01:19:15;;;;;;;5.43;1.45;;;;;;;4.73;100.00;99502.53;4994309;28;20444;-72
2024/02/26 01:21:40;;;;;;;2.60;1.50;;;;;;;4.72;100.00;99499.16;4997607;28;20034;-72
2024/02/26 01:24:06;;;;;;;2.85;1.70;;;;;;;4.71;100.00;99496.72;4992819;28;20052;-72
2024/02/26 01:26:32;;;;;;;6.15;1.80;;;;;;;4.71;100.00;99497.56;5002155;28;20543;-73
2024/02/26 01:28:58;;;;;;;2.60;1.45;;;;;;;4.73;100.00;99499.94;5010466;28;20045;-72
2024/02/26 01:31:23;;;;;;;3.30;1.83;;;;;;;4.71;100.00;99501.88;4998025;28;20097;-72
2024/02/26 01:33:49;;;;;;;3.63;1.58;;;;;;;4.74;100.00;99499.00;4994019;28;20038;-73
2024/02/26 01:36:14;;;;;;;2.42;1.75;;;;;;;4.82;100.00;99499.88;4995097;28;20034;-73
2024/02/26 01:38:40;;;;;;;3.28;1.60;;;;;;;4.85;100.00;99502.13;5008039;28;20041;-72
2024/02/26 01:41:06;;;;;;;3.75;1.98;;;;;;;4.78;100.00;99505.44;5010374;28;20042;-72
2024/02/26 01:43:31;;;;;;;4.50;1.75;;;;;;;4.76;100.00;99499.66;5008142;28;20038;-72
2024/02/26 01:45:57;;;;;;;4.03;1.77;;;;;;;4.74;100.00;99504.94;5005485;28;20045;-72
2024/02/26 01:48:23;;;;;;;4.85;1.70;;;;;;;4.73;100.00;99507.66;5014944;28;20088;-73
2024/02/26 01:50:48;;;;;;;5.53;1.50;;;;;;;4.73;100.00;99497.38;4990328;28;20945;-72
2024/02/26 01:53:16;;;;;;;3.03;1.80;;;;;;;4.75;100.00;99491.16;4988198;28;20038;-72
2024/02/26 01:55:42;;;;;;;2.72;1.48;;;;;;;4.75;100.00;99503.22;4983450;28;20034;-73
2024/02/26 01:58:07;;;;;;;4.60;1.40;;;;;;;4.75;100.00;99503.22;4988694;28;20046;-73
2024/02/26 02:00:33;;;;;;;2.85;1.50;;;;;;;4.78;100.00;99495.97;4987552;28;20056;-73
2024/02/26 02:02:59;;;;;;;3.78;1.50;;;;;;;4.74;100.00;99499.81;4991909;28;20377;-73
2024/02/26 02:05:25;;;;;;;4.60;1.45;;;;;;;4.76;100.00;99507.38;4989864;28;20493;-73
2024/02/26 02:07:52;;;;;;;2.70;1.52;;;;;;;4.74;100.00;99507.50;5015850;28;20034;-73
2024/02/26 02:10:22;;;;;;;4.00;1.50;;;;;;;4.77;100.00;99506.44;5008021;28;20039;-73
2024/02/26 02:12:48;;;;;;;2.97;1.95;;;;;;;4.80;100.00;99512.06;4986888;28;20038;-73
2024/02/26 02:15:14;;;;;;;4.05;1.38;;;;;;;4.82;100.00;99509.34;4972667;28;20048;-73
2024/02/26 02:17:39;;;;;;;3.92;1.40;;;;;;;4.79;100.00;99513.00;5009464;28;20030;-73
2024/02/26 02:20:09;;;;;;;4.47;1.70;;;;;;;4.78;100.00;99503.69;5009297;28;21179;-73
2024/02/26 02:22:34;;;;;;;3.65;2.35;;;;;;;4.72;100.00;99504.28;4977074;28;20070;-73
2024/02/26 02:25:00;;;;;;;4.45;1.60;;;;;;;4.71;100.00;99504.44;5014564;28;20610;-73
2024/02/26 02:27:27;;;;;;;2.67;1.50;;;;;;;4.71;100.00;99495.00;4989647;28;20512;-73
2024/02/26 02:29:53;;;;;;;2.50;1.40;;;;;;;4.71;100.00;99494.16;5009021;28;20040;-73
2024/02/26 02:32:19;;;;;;;4.20;1.75;;;;;;;4.64;100.00;99493.97;4988608;28;20643;-73
2024/02/26 02:34:45;;;;;;;4.13;1.70;;;;;;;4.62;100.00;99493.31;4991916;28;20496;-73
2024/02/26 02:37:11;;;;;;;4.13;2.10;;;;;;;4.54;100.00;99496.63;5008525;28;20041;-73
2024/02/26 02:39:36;;;;;;;5.25;1.55;;;;;;;4.53;100.00;99494.19;5006803;28;20037;-73
2024/02/26 02:42:02;;;;;;;3.33;1.80;;;;;;;4.58;100.00;99494.56;5003882;28;20033;-73
2024/02/26 02:44:27;;;;;;;4.18;1.75;;;;;;;4.66;100.00;99497.19;5007540;28;20396;-73
2024/02/26 02:46:53;;;;;;;2.75;1.63;;;;;;;4.51;100.00;99502.06;4989668;28;20029;-74
2024/02/26 02:49:18;;;;;;;6.70;1.80;;;;;;;4.53;100.00;99500.13;5005105;28;20045;-73
2024/02/26 02:51:44;;;;;;;3.40;1.50;;;;;;;4.43;100.00;99492.53;5009118;28;20034;-73
2024/02/26 02:54:10;;;;;;;4.80;2.17;;;;;;;4.46;100.00;99497.38;5009537;28;20044;-73
2024/02/26 02:56:35;;;;;;;3.53;1.50;;;;;;;4.42;100.00;99493.47;5005162;28;20034;-74
2024/02/26 02:59:01;;;;;;;4.63;1.70;;;;;;;4.42;100.00;99500.38;5007958;28;20037;-73
2024/02/26 03:01:27;;;;;;;2.92;1.60;;;;;;;4.45;100.00;99500.09;4989162;28;20177;-73
2024/02/26 03:03:52;;;;;;;3.53;2.00;;;;;;;4.41;100.00;99494.44;4989951;28;20037;-73
2024/02/26 03:06:18;;;;;;;2.47;1.45;;;;;;;4.43;100.00;99492.53;5003784;28;20509;-73
2024/02/26 03:08:43;;;;;;;2.47;1.55;;;;;;;4.38;100.00;99499.06;4993227;28;20041;-73
2024/02/26 03:11:13;;;;;;;4.70;1.75;;;;;;;4.44;100.00;99498.44;4996812;28;20038;-73
2024/02/26 03:13:39;;;;;;;4.55;1.65;;;;;;;4.42;100.00;99496.03;5016432;28;20057;-73
2024/02/26 03:16:05;;;;;;;5.28;1.30;;;;;;;4.35;100.00;99489.91;4993887;28;20034;-73
2024/02/26 03:18:31;;;;;;;4.50;1.52;;;;;;;4.34;100.00;99490.84;4995639;28;20033;-73
2024/02/26 03:20:56;;;;;;;3.30;1.30;;;;;;;4.35;100.00;99491.63;4994307;28;20049;-73
2024/02/26 03:23:22;;;;;;;3.30;1.70;;;;;;;4.43;100.00;99492.53;4991133;28;20038;-73
2024/02/26 03:25:47;;;;;;;8.38;2.10;;;;;;;4.41;100.00;99493.63;4992647;28;20030;-73
2024/02/26 03:28:13;;;;;;;4.50;1.63;;;;;;;4.40;100.00;99503.06;5011325;28;20084;-73
2024/02/26 03:30:38;;;;;;;6.13;1.60;;;;;;;4.43;100.00;99496.84;5007891;28;20038;-73
2024/02/26 03:33:04;;;;;;;2.72;1.42;;;;;;;4.43;100.00;99496.84;5010378;28;20026;-73
2024/02/26 03:35:29;;;;;;;3.13;1.40;;;;;;;4.37;100.00;99500.81;5011387;28;20452;-73
2024/02/26 03:37:55;;;;;;;3.00;1.40;;;;;;;4.42;100.00;99496.03;4991494;28;20038;-73
2024/02/26 03:40:20;;;;;;;3.78;1.38;;;;;;;4.37;100.00;99505.13;5008589;28;20033;-73
2024/02/26 03:42:46;;;;;;;7.43;1.77;;;;;;;4.38;100.00;99504.19;5013430;28;20030;-73
2024/02/26 03:45:11;;;;;;;2.92;1.58;;;;;;;4.34;100.00;99502.88;5009970;28;20033;-73
2024/02/26 03:47:40;;;;;;;3.80;1.58;;;;;;;4.28;100.00;99505.06;4993843;28;20046;-73
2024/02/26 03:50:06;;;;;;;3.47;1.55;;;;;;;4.39;100.00;99501.47;5011267;28;20036;-73
2024/02/26 03:52:33;;;;;;;3.15;1.48;;;;;;;4.37;100.00;99495.69;5010474;28;20031;-74
2024/02/26 03:54:58;;;;;;;5.82;1.50;;;;;;;4.37;100.00;99502.56;5025315;28;20033;-72
2024/02/26 03:57:24;;;;;;;2.25;1.40;;;;;;;4.31;100.00;99498.03;4993669;28;20034;-73
2024/02/26 03:59:49;;;;;;;3.78;1.52;;;;;;;4.28;100.00;99501.69;5008220;28;20397;-73
2024/02/26 04:02:16;;;;;;;2.85;1.48;;;;;;;4.41;100.00;99504.69;4993063;28;20034;-73
2024/02/26 04:04:41;;;;;;;8.90;1.52;;;;;;;4.35;100.00;99501.91;4979907;28;20072;-73
2024/02/26 04:07:07;;;;;;;7.13;1.58;;;;;;;4.36;100.00;99500.97;5011526;28;20035;-73
2024/02/26 04:09:33;;;;;;;2.90;1.33;;;;;;;4.39;100.00;99490.38;5009952;28;20463;-74
2024/02/26 04:11:58;;;;;;;3.10;1.52;;;;;;;4.37;100.00;99485.41;5010063;28;20046;-73
2024/02/26 04:14:24;;;;;;;3.17;1.33;;;;;;;4.38;100.00;99502.41;5011471;28;20033;-73
2024/02/26 04:16:52;;;;;;;3.20;1.42;;;;;;;4.37;100.00;99505.97;5007263;28;20049;-73
2024/02/26 04:19:18;;;;;;;2.90;1.50;;;;;;;4.37;100.00;99502.56;5022139;28;21820;-73
2024/02/26 04:21:43;;;;;;;4.43;1.58;;;;;;;4.30;100.00;99512.63;5008545;28;20113;-73
2024/02/26 04:24:09;;;;;;;4.45;1.88;;;;;;;4.36;100.00;99517.16;4996084;28;20034;-73
2024/02/26 04:26:34;;;;;;;3.72;1.90;;;;;;;4.31;100.00;99523.69;4987001;28;20034;-73
2024/02/26 04:29:00;;;;;;;5.35;2.78;;;;;;;4.24;100.00;99528.63;5013211;28;20502;-73
2024/02/26 04:31:26;;;;;;;8.05;2.60;;;;;;;4.36;100.00;99522.28;4992031;28;20520;-73
2024/02/26 04:33:52;;;;;;;6.97;2.60;;;;;;;4.36;100.00;99524.06;5010226;28;20038;-73
2024/02/26 04:36:17;;;;;;;4.88;2.95;;;;;;;4.29;100.00;99524.66;5008855;28;20102;-73
2024/02/26 04:38:46;;;;;;;7.57;3.00;;;;;;;4.28;100.00;99527.38;5011786;28;20029;-73
2024/02/26 04:41:12;;;;;;;6.53;3.38;;;;;;;4.29;100.00;99531.53;5007567;28;20034;-73
2024/02/26 04:43:41;;;;;;;8.50;2.67;;;;;;;4.29;100.00;99532.34;5006241;28;20033;-73
2024/02/26 04:46:09;;;;;;;6.97;2.95;;;;;;;4.28;100.00;99528.16;5007957;28;20598;-73
2024/02/26 04:48:38;;;;;;;5.15;2.40;;;;;;;4.32;100.00;99533.00;5025943;28;20041;-73
2024/02/26 04:51:04;;;;;;;6.30;2.90;;;;;;;4.25;100.00;99531.00;4989058;28;20034;-73
2024/02/26 04:53:29;;;;;;;5.47;2.63;;;;;;;4.25;100.00;99538.72;5006406;28;20044;-73
2024/02/26 04:55:55;;;;;;;4.68;2.35;;;;;;;4.16;100.00;99538.78;5008508;28;20129;-73
2024/02/26 04:58:20;;;;;;;3.65;2.20;;;;;;;4.15;100.00;99537.97;4987848;28;20056;-73
2024/02/26 05:00:46;;;;;;;8.05;2.42;;;;;;;4.15;100.00;99537.97;4992674;28;20046;-73
2024/02/26 05:03:15;;;;;;;7.15;2.40;;;;;;;4.20;100.00;99532.41;4991947;28;20034;-74
2024/02/26 05:05:43;;;;;;;4.30;2.58;;;;;;;4.21;100.00;99529.69;5014463;28;20041;-73
2024/02/26 05:08:09;;;;;;;11.50;4.43;;;;;;;4.26;100.00;99532.63;4995657;28;20796;-73
2024/02/26 05:10:38;;;;;;;5.38;2.50;;;;;;;4.20;100.00;99535.78;5007013;28;20041;-73
2024/02/26 05:13:04;;;;;;;3.28;2.28;;;;;;;4.16;100.00;99531.06;4989653;28;20534;-73
2024/02/26 05:15:30;;;;;;;7.97;3.28;;;;;;;4.15;100.00;99532.84;5007951;28;20042;-74
2024/02/26 05:17:55;;;;;;;7.05;3.92;;;;;;;4.11;100.00;99539.22;5007193;28;20033;-73
2024/02/26 05:20:21;;;;;;;10.88;4.00;;;;;;;4.07;100.00;99541.28;4992168;28;20029;-73
2024/02/26 05:22:47;;;;;;;9.55;4.25;;;;;;;4.12;100.00;99545.16;4994426;28;20490;-73
2024/02/26 05:25:15;;;;;;;10.35;3.85;;;;;;;4.15;100.00;99550.00;5005733;28;20623;-73
2024/02/26 05:27:41;;;;;;;7.72;3.25;;;;;;;4.09;100.00;99561.66;4991665;28;20076;-73
2024/02/26 05:30:07;;;;;;;6.95;3.67;;;;;;;4.11;100.00;99552.06;4977515;28;20022;-73
2024/02/26 05:32:32;;;;;;;5.72;3.08;;;;;;;4.07;100.00;99555.88;5010951;28;20044;-73
2024/02/26 05:34:58;;;;;;;5.57;3.20;;;;;;;4.12;100.00;99565.69;5006852;28;20519;-73
2024/02/26 05:37:23;;;;;;;11.20;3.22;;;;;;;4.13;100.00;99559.63;4991006;28;20038;-74
2024/02/26 05:39:49;;;;;;;5.43;3.15;;;;;;;4.14;100.00;99562.00;4990640;28;20042;-73
2024/02/26 05:42:14;;;;;;;11.40;4.68;;;;;;;4.14;100.00;99561.22;4988709;28;20027;-73
2024/02/26 05:44:40;;;;;;;7.95;4.10;;;;;;;4.05;100.00;99561.13;4990287;28;20492;-73
2024/02/26 05:47:05;;;;;;;8.52;3.90;;;;;;;4.10;100.00;99573.50;4990848;28;20045;-73
2024/02/26 05:49:31;;;;;;;8.52;4.13;;;;;;;4.10;100.00;99579.44;5008240;28;20033;-73
2024/02/26 05:51:56;;;;;;;8.48;4.05;;;;;;;4.13;100.00;99580.94;5001958;28;20505;-74
2024/02/26 05:54:21;;;;;;;7.47;3.50;;;;;;;4.16;100.00;99588.31;5004291;28;20038;-73
2024/02/26 05:56:47;;;;;;;5.90;3.58;;;;;;;4.19;100.00;99592.38;5003782;28;20038;-73
2024/02/26 05:59:12;;;;;;;9.00;3.92;;;;;;;4.11;100.00;99590.53;5008841;28;20030;-73
2024/02/26 06:01:38;;;;;;;5.63;4.18;;;;;;;4.10;100.00;99587.16;4994663;28;20085;-73
2024/02/26 06:04:03;;;;;;;9.35;4.43;;;;;;;4.10;100.00;99594.03;4993260;28;20477;-73
2024/02/26 06:06:29;;;;;;;8.63;4.07;;;;;;;4.03;100.00;99596.38;5008479;28;20186;-73
2024/02/26 06:08:54;;;;;;;7.72;4.80;;;;;;;4.07;100.00;99605.41;4990044;28;20069;-73
2024/02/26 06:11:20;;;;;;;7.65;5.20;;;;;;;4.01;100.00;99603.41;4993169;28;20424;-74
2024/02/26 06:13:45;;;;;;;10.23;5.50;;;;;;;3.98;100.00;99601.13;5007949;28;20385;-73
2024/02/26 06:16:10;;;;;;;17.63;8.32;;;;;;;4.01;100.00;99600.03;4998299;28;20044;-73
2024/02/26 06:18:36;;;;;;;10.65;5.35;;;;;;;3.99;100.00;99607.84;5001257;28;20041;-74
2024/02/26 06:21:02;;;;;;;9.52;5.32;;;;;;;4.01;100.00;99611.13;5008165;28;20045;-73
2024/02/26 06:23:27;;;;;;;11.25;5.28;;;;;;;3.97;100.00;99611.53;5008373;28;20022;-73
2024/02/26 06:25:53;;;;;;;9.77;5.82;;;;;;;3.94;100.00;99615.19;5006935;28;20033;-73
2024/02/26 06:28:19;;;;;;;12.63;6.97;;;;;;;3.95;100.00;99616.78;4989129;28;20030;-73
2024/02/26 06:30:44;;;;;;;9.73;6.00;;;;;;;3.98;100.00;99618.28;5005655;28;20061;-73
2024/02/26 06:33:10;;;;;;;12.45;5.15;;;;;;;3.89;100.00;99627.63;5005809;28;20037;-73
2024/02/26 06:35:36;;;;;;;9.90;5.28;;;;;;;3.93;100.00;99628.16;5020141;28;20045;-73
2024/02/26 06:38:01;;;;;;;8.20;5.38;;;;;;;3.98;100.00;99629.34;5010150;28;20408;-73
2024/02/26 06:40:27;;;;;;;9.13;5.30;;;;;;;3.95;100.00;99633.94;5023188;28;20038;-73
2024/02/26 06:42:53;;;;;;;11.18;5.95;;;;;;;3.97;100.00;99640.53;4993792;28;20038;-73
2024/02/26 06:45:19;;;;;;;7.93;5.07;;;;;;;3.98;100.00;99642.16;5005788;28;20045;-73
2024/02/26 06:47:45;;;;;;;8.45;4.88;;;;;;;4.00;100.00;99634.34;5007611;28;20076;-73
2024/02/26 06:50:13;;;;;;;9.48;5.57;;;;;;;3.95;100.00;99641.63;5010162;28;20037;-73
2024/02/26 06:52:39;;;;;;;10.07;5.10;;;;;;;3.97;100.00;99643.09;5008768;28;20077;-73
2024/02/26 06:55:05;;;;;;;9.48;5.22;;;;;;;4.10;100.00;99650.47;4995831;28;20033;-73
2024/02/26 06:57:30;;;;;;;11.38;6.55;;;;;;;4.04;100.00;99645.94;5018608;28;20049;-73
2024/02/26 06:59:58;;;;;;;9.73;5.03;;;;;;;4.03;100.00;99655.38;5002850;28;20031;-73
2024/02/26 07:02:23;;;;;;;38.30;13.23;;;;;;;4.09;100.00;99659.94;5003702;28;20043;-74
2024/02/26 07:04:49;;;;;;;11.15;6.18;;;;;;;4.04;100.00;99659.56;4995552;28;20038;-73
2024/02/26 07:07:14;;;;;;;11.02;5.07;;;;;;;4.09;100.00;99661.72;4990547;28;20029;-73
2024/02/26 07:09:42;;;;;;;12.07;4.85;;;;;;;3.99;100.00;99672.00;4992089;28;20033;-73
2024/02/26 07:12:07;;;;;;;11.15;5.63;;;;;;;4.02;100.00;99673.47;5013091;28;20044;-73
2024/02/26 07:14:33;;;;;;;10.73;4.82;;;;;;;3.95;100.00;99675.78;5011716;28;20030;-73
2024/02/26 07:16:59;;;;;;;10.65;5.28;;;;;;;4.02;100.00;99674.28;5006153;28;20045;-73
2024/02/26 07:19:24;;;;;;;7.88;4.68;;;;;;;3.99;100.00;99679.69;4990864;28;20026;-74
2024/02/26 07:21:50;;;;;;;13.95;6.57;;;;;;;3.96;100.00;99687.69;4989642;28;20696;-73
2024/02/26 07:24:15;;;;;;;12.63;5.72;;;;;;;3.94;100.00;99686.19;4991928;28;20622;-73
2024/02/26 07:26:40;;;;;;;8.98;4.45;;;;;;;3.99;100.00;99686.59;4994147;28;20419;-73
2024/02/26 07:29:06;;;;;;;8.10;4.50;;;;;;;4.02;100.00;99688.88;4979705;28;20091;-73
2024/02/26 07:31:31;;;;;;;11.57;4.78;;;;;;;4.02;100.00;99691.44;5004134;28;20540;-73
2024/02/26 07:33:57;;;;;;;8.02;4.18;;;;;;;3.95;100.00;99698.06;5014362;28;20025;-73
2024/02/26 07:36:22;;;;;;;6.80;4.30;;;;;;;3.94;100.00;99696.44;4987620;28;20511;-73
2024/02/26 07:38:48;;;;;;;8.85;4.70;;;;;;;3.94;100.00;99697.28;5003733;28;20503;-73
2024/02/26 07:41:13;;;;;;;6.57;3.90;;;;;;;4.02;100.00;99702.50;5010310;28;20488;-73
2024/02/26 07:43:40;;;;;;;9.65;4.30;;;;;;;3.95;100.00;99690.38;5013563;28;20034;-73
2024/02/26 07:46:06;;;;;;;8.68;4.47;;;;;;;4.04;100.00;99702.38;5021654;28;20125;-73
2024/02/26 07:48:32;;;;;;;12.05;4.20;;;;;;;4.03;100.00;99703.31;5006213;28;20030;-73
2024/02/26 07:50:59;;;;;;;7.13;3.95;;;;;;;4.02;100.00;99707.63;4989504;28;20034;-74
2024/02/26 07:53:24;;;;;;;11.13;5.53;;;;;;;3.99;100.00;99710.47;5006364;28;20053;-74
2024/02/26 07:55:49;;;;;;;9.23;4.03;;;;;;;3.98;100.00;99708.06;5010023;28;20164;-73
2024/02/26 07:58:15;;;;;;;12.55;4.20;;;;;;;4.10;100.00;99710.28;5010071;28;20045;-73
2024/02/26 08:00:40;;;;;;;10.65;4.30;;;;;;;4.06;100.00;99716.66;4994485;28;20416;-74
2024/02/26 08:03:06;;;;;;;6.85;4.38;;;;;;;4.03;100.00;99722.09;5008966;28;20033;-73
2024/02/26 08:05:31;;;;;;;11.57;4.55;;;;;;;4.15;100.00;99725.28;5013635;28;20519;-73
2024/02/26 08:07:57;;;;;;;5.90;3.38;;;;;;;4.10;100.00;99730.81;5023152;28;20392;-74
2024/02/26 08:10:22;;;;;;;9.52;4.55;;;;;;;4.23;100.00;99727.16;4995161;28;20680;-73
2024/02/26 08:12:47;;;;;;;7.95;4.10;;;;;;;4.19;100.00;99731.75;4997642;28;20397;-74
2024/02/26 08:15:13;;;;;;;7.95;4.53;;;;;;;4.20;100.00;99730.81;5012728;28;20041;-73
2024/02/26 08:17:38;;;;;;;8.10;4.93;;;;;;;4.22;100.00;99734.03;4994946;28;20058;-75
2024/02/26 08:20:05;;;;;;;9.52;4.43;;;;;;;4.29;100.00;99734.28;5016133;28;20021;-74
2024/02/26 08:22:30;;;;;;;7.60;4.28;;;;;;;4.25;100.00;99744.00;5009280;28;20405;-74
2024/02/26 08:24:56;;;;;;;8.43;3.97;;;;;;;4.26;100.00;99737.94;5013211;28;20026;-73
2024/02/26 08:27:21;;;;;;;5.55;3.45;;;;;;;4.27;100.00;99746.44;5012094;28;20563;-73
2024/02/26 08:29:47;;;;;;;7.35;4.18;;;;;;;4.27;100.00;99741.31;5009072;28;20592;-73
2024/02/26 08:32:12;;;;;;;4.80;3.60;;;;;;;4.33;100.00;99738.16;5011245;28;20044;-74
2024/02/26 08:34:38;;;;;;;5.38;3.67;;;;;;;4.36;100.00;99748.16;5011162;28;20117;-73
2024/02/26 08:37:03;;;;;;;7.90;3.83;;;;;;;4.32;100.00;99751.97;5024353;28;20048;-73
2024/02/26 08:39:29;;;;;;;7.22;4.03;;;;;;;4.33;100.00;99747.63;5016756;28;20044;-74
2024/02/26 08:41:54;;;;;;;7.88;3.67;;;;;;;4.31;100.00;99760.59;5012316;28;20038;-74
2024/02/26 08:44:20;;;;;;;10.98;4.68;;;;;;;4.37;100.00;99762.63;4994460;28;20064;-73
2024/02/26 08:46:45;;;;;;;9.65;3.88;;;;;;;4.35;100.00;99761.97;5010288;28;20042;-73
2024/02/26 08:49:11;;;;;;;6.05;3.50;;;;;;;4.36;100.00;99770.47;5008467;28;20053;-74
2024/02/26 08:51:42;;;;;;;9.82;4.50;;;;;;;4.41;100.00;99771.66;5011160;28;20029;-73
2024/02/26 08:54:07;;;;;;;6.43;3.47;;;;;;;4.39;100.00;99775.31;4990360;28;20034;-73
2024/02/26 08:56:32;;;;;;;7.70;3.65;;;;;;;4.37;100.00;99772.06;5006011;28;20068;-74
2024/02/26 08:59:03;;;;;;;9.02;3.95;;;;;;;4.41;100.00;99773.44;4992873;28;20052;-73
2024/02/26 09:01:29;;;;;;;8.32;3.40;;;;;;;4.35;100.00;99776.53;4990554;28;20061;-73
2024/02/26 09:03:56;;;;;;;7.53;3.67;;;;;;;4.38;100.00;99769.38;5020021;28;20483;-73
2024/02/26 09:06:21;;;;;;;8.70;3.88;;;;;;;4.41;100.00;99771.66;4996570;28;20519;-73
2024/02/26 09:08:47;;;;;;;12.52;4.50;;;;;;;4.44;100.00;99770.56;5011860;28;20065;-73
2024/02/26 09:11:12;;;;;;;7.13;3.80;;;;;;;4.42;100.00;99782.72;5010261;28;20029;-74
2024/02/26 09:13:38;;;;;;;9.00;3.95;;;;;;;4.38;100.00;99776.28;5011552;28;20036;-73
2024/02/26 09:16:03;;;;;;;10.95;3.75;;;;;;;4.29;100.00;99790.75;5014395;28;20399;-73
2024/02/26 09:18:29;;;;;;;9.65;4.15;;;;;;;4.28;100.00;99787.38;5006774;28;20048;-73
2024/02/26 09:20:54;;;;;;;6.78;4.25;;;;;;;4.29;100.00;99790.75;5009943;28;20038;-73
2024/02/26 09:23:20;;;;;;;9.27;3.97;;;;;;;4.35;100.00;99797.06;5022123;28;20038;-73
2024/02/26 09:25:45;;;;;;;8.10;4.20;;;;;;;4.28;100.00;99789.94;4995987;28;20041;-74
2024/02/26 09:28:11;;;;;;;8.45;3.97;;;;;;;4.31;100.00;99796.53;5013217;28;20045;-73
2024/02/26 09:30:36;;;;;;;8.35;4.07;;;;;;;4.35;100.00;99803.03;5011345;28;20053;-73
2024/02/26 09:33:02;;;;;;;8.30;4.40;;;;;;;4.37;100.00;99805.44;4992593;28;20116;-74
2024/02/26 09:35:27;;;;;;;4.97;3.30;;;;;;;4.38;100.00;99805.31;5009151;28;20050;-74
2024/02/26 09:37:53;;;;;;;9.30;4.78;;;;;;;4.33;100.00;99810.03;4978244;28;20037;-74
2024/02/26 09:40:19;;;;;;;6.82;3.97;;;;;;;4.37;100.00;99808.00;5008179;28;20029;-73
2024/02/26 09:42:45;;;;;;;13.85;4.57;;;;;;;4.49;100.00;99823.09;5010099;28;20435;-74
2024/02/26 09:45:17;;;;;;;8.35;3.88;;;;;;;4.38;100.00;99830.97;5006093;28;20034;-74
2024/02/26 09:47:44;;;;;;;7.43;3.60;;;;;;;4.38;100.00;99828.41;5008143;28;20103;-74
2024/02/26 09:50:13;;;;;;;11.70;3.92;;;;;;;4.40;100.00;99834.22;5025149;28;20444;-74
2024/02/26 09:52:41;;;;;;;7.93;4.38;;;;;;;4.46;100.00;99841.38;4997188;28;20120;-74
2024/02/26 09:55:08;;;;;;;5.88;3.70;;;;;;;4.46;100.00;99837.97;4993350;28;20053;-74
2024/02/26 09:57:35;;;;;;;9.82;4.00;;;;;;;4.43;100.00;99848.53;4994285;28;20041;-73
2024/02/26 10:00:05;;;;;;;10.75;3.92;;;;;;;4.39;100.00;99842.88;4993994;28;20085;-73
2024/02/26 10:02:33;;;;;;;8.45;3.85;;;;;;;4.53;100.00;99839.03;5012524;28;20076;-74
2024/02/26 10:05:04;;;;;;;8.98;4.22;;;;;;;4.48;100.00;99857.44;5002636;28;20061;-73
2024/02/26 10:07:30;;;;;;;8.65;4.53;;;;;;;4.49;100.00;99858.25;5010696;28;20049;-74
2024/02/26 10:09:55;;;;;;;8.90;4.10;;;;;;;4.49;100.00;99859.03;4988588;28;20022;-73
2024/02/26 10:12:21;;;;;;;7.68;4.30;;;;;;;4.52;100.00;99864.84;5011888;28;20034;-73
2024/02/26 10:14:47;;;;;;;7.55;4.47;;;;;;;4.52;100.00;99864.84;4992545;28;20574;-74
2024/02/26 10:17:12;;;;;;;8.20;4.20;;;;;;;4.51;100.00;99866.63;5010221;28;20079;-73
2024/02/26 10:19:38;;;;;;;7.97;4.43;;;;;;;4.56;100.00;99873.88;5007087;28;20711;-73
2024/02/26 10:22:04;;;;;;;8.27;4.55;;;;;;;4.54;100.00;99875.78;5012442;28;20037;-74
2024/02/26 10:24:30;;;;;;;8.93;4.40;;;;;;;4.56;100.00;99877.28;5014880;28;20653;-73
2024/02/26 10:26:56;;;;;;;9.40;5.13;;;;;;;4.64;100.00;99876.59;5011015;28;20061;-73
2024/02/26 10:29:24;;;;;;;9.73;4.63;;;;;;;4.71;100.00;99885.34;4989946;28;20017;-73
2024/02/26 10:31:51;;;;;;;11.98;5.28;;;;;;;4.70;100.00;99886.28;4988491;28;20046;-73
2024/02/26 10:34:16;;;;;;;9.25;4.90;;;;;;;4.76;100.00;99887.50;4991059;28;20484;-73
2024/02/26 10:36:43;;;;;;;13.57;4.95;;;;;;;4.78;100.00;99893.28;4973858;28;20030;-73
2024/02/26 10:39:09;;;;;;;7.80;4.63;;;;;;;4.86;100.00;99889.09;4991344;28;20061;-73
2024/02/26 10:41:34;;;;;;;11.43;4.75;;;;;;;4.82;100.00;99895.47;5006128;28;20050;-74
2024/02/26 10:44:00;;;;;;;6.55;4.50;;;;;;;4.87;100.00;99885.53;5005216;28;20029;-73
2024/02/26 10:46:26;;;;;;;10.00;5.30;;;;;;;4.92;100.00;99897.19;5002910;28;20037;-73
2024/02/26 10:48:53;;;;;;;8.70;4.95;;;;;;;4.97;100.00;99894.97;4995747;28;20034;-73
2024/02/26 10:51:25;;;;;;;9.23;5.15;;;;;;;5.00;100.00;99897.28;4989998;28;20046;-74
2024/02/26 10:53:56;;;;;;;8.68;5.35;;;;;;;5.01;100.00;99899.72;5006287;28;20084;-74
2024/02/26 10:56:25;;;;;;;8.27;4.60;;;;;;;5.06;100.00;99899.28;5009835;28;20034;-73
2024/02/26 10:58:51;;;;;;;7.30;4.53;;;;;;;5.07;100.00;99901.72;4992885;28;20030;-74
2024/02/26 11:01:19;;;;;;;9.10;4.32;;;;;;;5.05;100.00;99910.53;4990009;28;20172;-73
2024/02/26 11:03:45;;;;;;;8.10;4.57;;;;;;;5.11;100.00;99914.28;5008058;28;20618;-74
2024/02/26 11:06:12;;;;;;;10.27;6.35;;;;;;;5.17;100.00;99918.84;5007362;28;20045;-74
2024/02/26 11:08:38;;;;;;;8.88;4.90;;;;;;;5.10;100.00;99920.34;4993359;28;20088;-74
2024/02/26 11:11:05;;;;;;;8.95;5.40;;;;;;;5.08;100.00;99925.63;5011187;28;20117;-73
2024/02/26 11:13:31;;;;;;;10.27;6.28;;;;;;;5.16;100.00;99925.75;4948233;28;1106511;-74
2024/02/26 11:15:59;;;;;;;11.38;6.28;;;;;;;5.14;100.00;99930.22;4994933;28;20061;-73
2024/02/26 11:18:27;;;;;;;10.95;5.80;;;;;;;5.29;100.00;99937.47;5010994;28;20034;-74
2024/02/26 11:20:56;;;;;;;11.43;6.53;;;;;;;5.41;100.00;99939.69;5010105;28;20042;-75
2024/02/26 11:23:22;;;;;;;10.25;6.70;;;;;;;5.44;100.00;99941.16;5008841;28;20096;-73
2024/02/26 11:25:50;;;;;;;13.35;7.20;;;;;;;5.51;100.00;99944.78;5004139;28;20440;-74